sensor_id;sensor_type;location;lat;lon;timestamp;P1;durP1;ratioP1;P2;durP2;ratioP2
1446;SDS011;717;51.522;7.266;2024-03-22T00:01:13;22.10;;;16.95;;
1446;SDS011;717;51.522;7.266;2024-03-22T00:03:42;22.98;;;16.80;;
1446;SDS011;717;51.522;7.266;2024-03-22T00:06:08;21.50;;;15.63;;
1446;SDS011;717;51.522;7.266;2024-03-22T00:08:35;25.17;;;17.27;;
1446;SDS011;717;51.522;7.266;2024-03-22T00:11:01;21.80;;;17.50;;
1446;SDS011;717;51.522;7.266;2024-03-22T00:13:27;23.50;;;16.92;;
1446;SDS011;717;51.522;7.266;2024-03-22T00:15:53;21.25;;;15.88;;
1446;SDS011;717;51.522;7.266;2024-03-22T00:18:20;21.30;;;16.40;;
1446;SDS011;717;51.522;7.266;2024-03-22T00:20:49;23.10;;;17.92;;
1446;SDS011;717;51.522;7.266;2024-03-22T00:23:15;18.85;;;15.73;;
1446;SDS011;717;51.522;7.266;2024-03-22T00:25:41;24.08;;;15.60;;
1446;SDS011;717;51.522;7.266;2024-03-22T00:28:08;20.95;;;15.80;;
1446;SDS011;717;51.522;7.266;2024-03-22T00:30:34;20.58;;;16.05;;
1446;SDS011;717;51.522;7.266;2024-03-22T00:33:00;21.60;;;16.15;;
1446;SDS011;717;51.522;7.266;2024-03-22T00:35:28;22.90;;;16.48;;
1446;SDS011;717;51.522;7.266;2024-03-22T00:37:58;22.42;;;16.33;;
1446;SDS011;717;51.522;7.266;2024-03-22T00:40:24;22.45;;;16.17;;
1446;SDS011;717;51.522;7.266;2024-03-22T00:42:51;20.73;;;15.68;;
1446;SDS011;717;51.522;7.266;2024-03-22T00:45:17;22.27;;;15.98;;
1446;SDS011;717;51.522;7.266;2024-03-22T00:47:43;22.23;;;15.20;;
1446;SDS011;717;51.522;7.266;2024-03-22T00:50:10;24.02;;;16.88;;
1446;SDS011;717;51.522;7.266;2024-03-22T00:52:36;24.65;;;16.08;;
1446;SDS011;717;51.522;7.266;2024-03-22T00:55:05;21.55;;;15.63;;
1446;SDS011;717;51.522;7.266;2024-03-22T00:57:32;22.50;;;16.45;;
1446;SDS011;717;51.522;7.266;2024-03-22T00:59:59;23.63;;;16.67;;
1446;SDS011;717;51.522;7.266;2024-03-22T01:02:25;22.77;;;16.33;;
1446;SDS011;717;51.522;7.266;2024-03-22T01:04:52;22.58;;;15.18;;
1446;SDS011;717;51.522;7.266;2024-03-22T01:07:18;22.20;;;16.83;;
1446;SDS011;717;51.522;7.266;2024-03-22T01:09:44;25.35;;;17.42;;
1446;SDS011;717;51.522;7.266;2024-03-22T01:12:13;21.77;;;16.20;;
1446;SDS011;717;51.522;7.266;2024-03-22T01:14:39;21.73;;;16.40;;
1446;SDS011;717;51.522;7.266;2024-03-22T01:17:06;21.98;;;16.05;;
1446;SDS011;717;51.522;7.266;2024-03-22T01:19:33;23.42;;;15.98;;
1446;SDS011;717;51.522;7.266;2024-03-22T01:21:59;22.92;;;16.10;;
1446;SDS011;717;51.522;7.266;2024-03-22T01:24:25;22.27;;;16.23;;
1446;SDS011;717;51.522;7.266;2024-03-22T01:26:52;23.83;;;17.67;;
1446;SDS011;717;51.522;7.266;2024-03-22T01:29:21;22.08;;;16.00;;
1446;SDS011;717;51.522;7.266;2024-03-22T01:31:47;24.73;;;16.13;;
1446;SDS011;717;51.522;7.266;2024-03-22T01:34:14;22.73;;;16.10;;
1446;SDS011;717;51.522;7.266;2024-03-22T01:36:40;28.05;;;17.50;;
1446;SDS011;717;51.522;7.266;2024-03-22T01:39:07;22.20;;;16.33;;
1446;SDS011;717;51.522;7.266;2024-03-22T01:41:33;22.75;;;17.55;;
1446;SDS011;717;51.522;7.266;2024-03-22T01:43:59;22.85;;;14.82;;
1446;SDS011;717;51.522;7.266;2024-03-22T01:46:28;23.63;;;16.88;;
1446;SDS011;717;51.522;7.266;2024-03-22T01:48:55;22.67;;;15.52;;
1446;SDS011;717;51.522;7.266;2024-03-22T01:51:21;26.08;;;17.55;;
1446;SDS011;717;51.522;7.266;2024-03-22T01:53:48;22.75;;;16.20;;
1446;SDS011;717;51.522;7.266;2024-03-22T01:56:14;24.67;;;16.83;;
1446;SDS011;717;51.522;7.266;2024-03-22T01:58:40;24.48;;;17.10;;
1446;SDS011;717;51.522;7.266;2024-03-22T02:01:07;22.23;;;15.40;;
1446;SDS011;717;51.522;7.266;2024-03-22T02:03:36;23.38;;;16.70;;
1446;SDS011;717;51.522;7.266;2024-03-22T02:06:03;25.23;;;17.10;;
1446;SDS011;717;51.522;7.266;2024-03-22T02:08:30;21.67;;;15.65;;
1446;SDS011;717;51.522;7.266;2024-03-22T02:10:56;21.75;;;15.40;;
1446;SDS011;717;51.522;7.266;2024-03-22T02:13:23;21.67;;;15.52;;
1446;SDS011;717;51.522;7.266;2024-03-22T02:15:49;20.52;;;15.25;;
1446;SDS011;717;51.522;7.266;2024-03-22T02:18:16;20.55;;;14.35;;
1446;SDS011;717;51.522;7.266;2024-03-22T02:20:45;21.00;;;15.82;;
1446;SDS011;717;51.522;7.266;2024-03-22T02:23:11;22.02;;;15.05;;
1446;SDS011;717;51.522;7.266;2024-03-22T02:25:40;22.08;;;15.25;;
1446;SDS011;717;51.522;7.266;2024-03-22T02:28:07;21.50;;;15.60;;
1446;SDS011;717;51.522;7.266;2024-03-22T02:30:33;23.38;;;15.32;;
1446;SDS011;717;51.522;7.266;2024-03-22T02:32:59;24.27;;;15.70;;
1446;SDS011;717;51.522;7.266;2024-03-22T02:35:26;19.73;;;14.35;;
1446;SDS011;717;51.522;7.266;2024-03-22T02:37:52;21.40;;;14.65;;
1446;SDS011;717;51.522;7.266;2024-03-22T02:40:20;20.15;;;15.85;;
1446;SDS011;717;51.522;7.266;2024-03-22T02:42:49;20.42;;;15.07;;
1446;SDS011;717;51.522;7.266;2024-03-22T02:45:15;18.10;;;14.00;;
1446;SDS011;717;51.522;7.266;2024-03-22T02:47:41;20.88;;;15.60;;
1446;SDS011;717;51.522;7.266;2024-03-22T02:50:08;20.60;;;14.70;;
1446;SDS011;717;51.522;7.266;2024-03-22T02:52:34;20.73;;;14.57;;
1446;SDS011;717;51.522;7.266;2024-03-22T02:55:00;20.35;;;14.38;;
1446;SDS011;717;51.522;7.266;2024-03-22T02:57:27;21.23;;;15.60;;
1446;SDS011;717;51.522;7.266;2024-03-22T02:59:56;21.15;;;15.18;;
1446;SDS011;717;51.522;7.266;2024-03-22T03:02:25;21.95;;;16.85;;
1446;SDS011;717;51.522;7.266;2024-03-22T03:04:51;20.58;;;14.68;;
1446;SDS011;717;51.522;7.266;2024-03-22T03:07:18;21.83;;;15.27;;
1446;SDS011;717;51.522;7.266;2024-03-22T03:09:44;20.02;;;15.00;;
1446;SDS011;717;51.522;7.266;2024-03-22T03:12:11;19.85;;;15.43;;
1446;SDS011;717;51.522;7.266;2024-03-22T03:14:37;24.20;;;15.95;;
1446;SDS011;717;51.522;7.266;2024-03-22T03:17:06;22.08;;;15.35;;
1446;SDS011;717;51.522;7.266;2024-03-22T03:19:32;19.77;;;15.00;;
1446;SDS011;717;51.522;7.266;2024-03-22T03:21:59;22.67;;;16.77;;
1446;SDS011;717;51.522;7.266;2024-03-22T03:24:25;20.90;;;15.80;;
1446;SDS011;717;51.522;7.266;2024-03-22T03:26:51;20.98;;;15.38;;
1446;SDS011;717;51.522;7.266;2024-03-22T03:29:19;22.10;;;16.20;;
1446;SDS011;717;51.522;7.266;2024-03-22T03:31:45;20.73;;;16.30;;
1446;SDS011;717;51.522;7.266;2024-03-22T03:34:14;21.40;;;15.35;;
1446;SDS011;717;51.522;7.266;2024-03-22T03:36:41;22.25;;;16.15;;
1446;SDS011;717;51.522;7.266;2024-03-22T03:39:07;20.20;;;15.73;;
1446;SDS011;717;51.522;7.266;2024-03-22T03:41:34;20.90;;;15.52;;
1446;SDS011;717;51.522;7.266;2024-03-22T03:44:01;19.33;;;15.45;;
1446;SDS011;717;51.522;7.266;2024-03-22T03:46:27;19.17;;;14.60;;
1446;SDS011;717;51.522;7.266;2024-03-22T03:48:53;20.88;;;15.52;;
1446;SDS011;717;51.522;7.266;2024-03-22T03:51:22;19.50;;;15.02;;
1446;SDS011;717;51.522;7.266;2024-03-22T03:53:49;19.40;;;15.10;;
1446;SDS011;717;51.522;7.266;2024-03-22T03:56:16;19.55;;;14.68;;
1446;SDS011;717;51.522;7.266;2024-03-22T03:58:45;18.77;;;13.50;;
1446;SDS011;717;51.522;7.266;2024-03-22T04:01:11;19.65;;;15.23;;
1446;SDS011;717;51.522;7.266;2024-03-22T04:03:37;21.73;;;16.02;;
1446;SDS011;717;51.522;7.266;2024-03-22T04:06:04;20.83;;;15.57;;
1446;SDS011;717;51.522;7.266;2024-03-22T04:08:33;21.40;;;16.02;;
1446;SDS011;717;51.522;7.266;2024-03-22T04:10:59;20.63;;;15.68;;
1446;SDS011;717;51.522;7.266;2024-03-22T04:13:26;18.55;;;14.23;;
1446;SDS011;717;51.522;7.266;2024-03-22T04:15:53;21.73;;;15.25;;
1446;SDS011;717;51.522;7.266;2024-03-22T04:18:19;17.92;;;14.23;;
1446;SDS011;717;51.522;7.266;2024-03-22T04:20:52;17.75;;;14.18;;
1446;SDS011;717;51.522;7.266;2024-03-22T04:23:19;17.67;;;13.15;;
1446;SDS011;717;51.522;7.266;2024-03-22T04:25:53;17.50;;;14.05;;
1446;SDS011;717;51.522;7.266;2024-03-22T04:28:20;17.85;;;13.02;;
1446;SDS011;717;51.522;7.266;2024-03-22T04:30:55;16.27;;;12.48;;
1446;SDS011;717;51.522;7.266;2024-03-22T04:33:22;17.13;;;13.15;;
1446;SDS011;717;51.522;7.266;2024-03-22T04:35:48;18.25;;;13.15;;
1446;SDS011;717;51.522;7.266;2024-03-22T04:38:15;16.80;;;13.75;;
1446;SDS011;717;51.522;7.266;2024-03-22T04:40:41;20.20;;;14.13;;
1446;SDS011;717;51.522;7.266;2024-03-22T04:43:10;16.15;;;13.68;;
1446;SDS011;717;51.522;7.266;2024-03-22T04:45:36;17.92;;;14.10;;
1446;SDS011;717;51.522;7.266;2024-03-22T04:48:03;15.20;;;12.32;;
1446;SDS011;717;51.522;7.266;2024-03-22T04:50:30;16.73;;;12.88;;
1446;SDS011;717;51.522;7.266;2024-03-22T04:52:57;15.70;;;12.88;;
1446;SDS011;717;51.522;7.266;2024-03-22T04:55:23;16.60;;;12.60;;
1446;SDS011;717;51.522;7.266;2024-03-22T04:57:51;17.90;;;13.07;;
1446;SDS011;717;51.522;7.266;2024-03-22T05:00:20;16.60;;;13.00;;
1446;SDS011;717;51.522;7.266;2024-03-22T05:02:47;16.05;;;12.52;;
1446;SDS011;717;51.522;7.266;2024-03-22T05:05:13;15.00;;;12.40;;
1446;SDS011;717;51.522;7.266;2024-03-22T05:07:40;15.55;;;12.88;;
1446;SDS011;717;51.522;7.266;2024-03-22T05:10:06;19.58;;;14.63;;
1446;SDS011;717;51.522;7.266;2024-03-22T05:12:33;16.85;;;12.70;;
1446;SDS011;717;51.522;7.266;2024-03-22T05:15:00;17.17;;;12.98;;
1446;SDS011;717;51.522;7.266;2024-03-22T05:17:30;14.18;;;12.55;;
1446;SDS011;717;51.522;7.266;2024-03-22T05:19:57;17.90;;;13.75;;
1446;SDS011;717;51.522;7.266;2024-03-22T05:22:23;15.45;;;12.30;;
1446;SDS011;717;51.522;7.266;2024-03-22T05:24:50;15.45;;;12.63;;
1446;SDS011;717;51.522;7.266;2024-03-22T05:27:16;17.73;;;12.98;;
1446;SDS011;717;51.522;7.266;2024-03-22T05:29:43;17.05;;;12.43;;
1446;SDS011;717;51.522;7.266;2024-03-22T05:32:09;16.40;;;12.65;;
1446;SDS011;717;51.522;7.266;2024-03-22T05:34:38;14.52;;;11.98;;
1446;SDS011;717;51.522;7.266;2024-03-22T05:37:05;14.90;;;12.73;;
1446;SDS011;717;51.522;7.266;2024-03-22T05:39:31;16.75;;;13.43;;
1446;SDS011;717;51.522;7.266;2024-03-22T05:41:57;14.07;;;11.95;;
1446;SDS011;717;51.522;7.266;2024-03-22T05:44:24;15.40;;;12.98;;
1446;SDS011;717;51.522;7.266;2024-03-22T05:46:50;17.27;;;12.75;;
1446;SDS011;717;51.522;7.266;2024-03-22T05:49:16;15.75;;;12.15;;
1446;SDS011;717;51.522;7.266;2024-03-22T05:51:45;18.02;;;13.68;;
1446;SDS011;717;51.522;7.266;2024-03-22T05:54:12;16.63;;;11.65;;
1446;SDS011;717;51.522;7.266;2024-03-22T05:56:38;13.75;;;11.75;;
1446;SDS011;717;51.522;7.266;2024-03-22T05:59:04;13.52;;;11.57;;
1446;SDS011;717;51.522;7.266;2024-03-22T06:01:31;14.73;;;11.88;;
1446;SDS011;717;51.522;7.266;2024-03-22T06:03:57;16.40;;;13.23;;
1446;SDS011;717;51.522;7.266;2024-03-22T06:06:24;13.77;;;11.20;;
1446;SDS011;717;51.522;7.266;2024-03-22T06:08:53;14.55;;;11.88;;
1446;SDS011;717;51.522;7.266;2024-03-22T06:11:19;15.65;;;12.27;;
1446;SDS011;717;51.522;7.266;2024-03-22T06:13:46;12.90;;;10.13;;
1446;SDS011;717;51.522;7.266;2024-03-22T06:16:13;14.05;;;10.98;;
1446;SDS011;717;51.522;7.266;2024-03-22T06:18:39;14.32;;;10.73;;
1446;SDS011;717;51.522;7.266;2024-03-22T06:21:05;14.27;;;11.80;;
1446;SDS011;717;51.522;7.266;2024-03-22T06:23:32;14.60;;;11.63;;
1446;SDS011;717;51.522;7.266;2024-03-22T06:26:01;14.50;;;10.85;;
1446;SDS011;717;51.522;7.266;2024-03-22T06:28:28;13.75;;;10.32;;
1446;SDS011;717;51.522;7.266;2024-03-22T06:30:54;13.80;;;10.23;;
1446;SDS011;717;51.522;7.266;2024-03-22T06:33:21;13.38;;;10.75;;
1446;SDS011;717;51.522;7.266;2024-03-22T06:35:47;13.52;;;10.45;;
1446;SDS011;717;51.522;7.266;2024-03-22T06:38:13;13.00;;;9.93;;
1446;SDS011;717;51.522;7.266;2024-03-22T06:40:40;10.88;;;9.75;;
1446;SDS011;717;51.522;7.266;2024-03-22T06:43:09;13.95;;;9.77;;
1446;SDS011;717;51.522;7.266;2024-03-22T06:45:35;12.63;;;9.65;;
1446;SDS011;717;51.522;7.266;2024-03-22T06:48:01;12.18;;;9.32;;
1446;SDS011;717;51.522;7.266;2024-03-22T06:50:28;13.15;;;10.70;;
1446;SDS011;717;51.522;7.266;2024-03-22T06:52:54;11.70;;;9.27;;
1446;SDS011;717;51.522;7.266;2024-03-22T06:55:21;11.32;;;9.23;;
1446;SDS011;717;51.522;7.266;2024-03-22T06:57:48;13.05;;;10.60;;
1446;SDS011;717;51.522;7.266;2024-03-22T07:00:18;11.32;;;9.32;;
1446;SDS011;717;51.522;7.266;2024-03-22T07:02:44;12.88;;;9.75;;
1446;SDS011;717;51.522;7.266;2024-03-22T07:05:11;12.02;;;10.02;;
1446;SDS011;717;51.522;7.266;2024-03-22T07:07:38;13.57;;;10.10;;
1446;SDS011;717;51.522;7.266;2024-03-22T07:10:04;13.38;;;9.90;;
1446;SDS011;717;51.522;7.266;2024-03-22T07:12:31;13.38;;;10.02;;
1446;SDS011;717;51.522;7.266;2024-03-22T07:14:59;12.35;;;10.18;;
1446;SDS011;717;51.522;7.266;2024-03-22T07:17:29;13.93;;;11.00;;
1446;SDS011;717;51.522;7.266;2024-03-22T07:19:55;12.85;;;9.93;;
1446;SDS011;717;51.522;7.266;2024-03-22T07:22:21;12.23;;;10.68;;
1446;SDS011;717;51.522;7.266;2024-03-22T07:24:48;12.35;;;10.32;;
1446;SDS011;717;51.522;7.266;2024-03-22T07:27:15;12.85;;;10.05;;
1446;SDS011;717;51.522;7.266;2024-03-22T07:29:41;11.75;;;10.27;;
1446;SDS011;717;51.522;7.266;2024-03-22T07:32:07;11.20;;;9.38;;
1446;SDS011;717;51.522;7.266;2024-03-22T07:34:36;12.27;;;10.98;;
1446;SDS011;717;51.522;7.266;2024-03-22T07:37:03;14.48;;;10.43;;
1446;SDS011;717;51.522;7.266;2024-03-22T07:39:29;12.93;;;10.70;;
1446;SDS011;717;51.522;7.266;2024-03-22T07:41:56;11.43;;;10.23;;
1446;SDS011;717;51.522;7.266;2024-03-22T07:44:23;11.52;;;9.57;;
1446;SDS011;717;51.522;7.266;2024-03-22T07:46:49;15.80;;;11.50;;
1446;SDS011;717;51.522;7.266;2024-03-22T07:49:16;14.02;;;10.55;;
1446;SDS011;717;51.522;7.266;2024-03-22T07:51:45;14.50;;;10.20;;
1446;SDS011;717;51.522;7.266;2024-03-22T07:54:11;14.48;;;10.90;;
1446;SDS011;717;51.522;7.266;2024-03-22T07:56:37;11.63;;;10.40;;
1446;SDS011;717;51.522;7.266;2024-03-22T07:59:04;13.98;;;10.50;;
1446;SDS011;717;51.522;7.266;2024-03-22T08:01:31;12.38;;;10.27;;
1446;SDS011;717;51.522;7.266;2024-03-22T08:03:57;14.30;;;11.77;;
1446;SDS011;717;51.522;7.266;2024-03-22T08:06:24;14.10;;;11.02;;
1446;SDS011;717;51.522;7.266;2024-03-22T08:08:53;12.20;;;10.10;;
1446;SDS011;717;51.522;7.266;2024-03-22T08:11:19;14.80;;;10.40;;
1446;SDS011;717;51.522;7.266;2024-03-22T08:13:45;11.93;;;9.48;;
1446;SDS011;717;51.522;7.266;2024-03-22T08:16:12;12.32;;;9.30;;
1446;SDS011;717;51.522;7.266;2024-03-22T08:18:40;11.93;;;9.63;;
1446;SDS011;717;51.522;7.266;2024-03-22T08:21:07;11.52;;;10.13;;
1446;SDS011;717;51.522;7.266;2024-03-22T08:23:33;10.25;;;8.52;;
1446;SDS011;717;51.522;7.266;2024-03-22T08:26:02;12.23;;;9.68;;
1446;SDS011;717;51.522;7.266;2024-03-22T08:28:28;10.65;;;9.05;;
1446;SDS011;717;51.522;7.266;2024-03-22T08:30:54;12.45;;;9.25;;
1446;SDS011;717;51.522;7.266;2024-03-22T08:33:21;10.55;;;9.07;;
1446;SDS011;717;51.522;7.266;2024-03-22T08:35:47;10.57;;;9.10;;
1446;SDS011;717;51.522;7.266;2024-03-22T08:38:13;12.52;;;8.60;;
1446;SDS011;717;51.522;7.266;2024-03-22T08:40:40;9.38;;;7.93;;
1446;SDS011;717;51.522;7.266;2024-03-22T08:43:09;12.10;;;8.88;;
1446;SDS011;717;51.522;7.266;2024-03-22T08:45:35;9.93;;;8.60;;
1446;SDS011;717;51.522;7.266;2024-03-22T08:48:02;12.90;;;9.90;;
1446;SDS011;717;51.522;7.266;2024-03-22T08:50:29;10.68;;;8.88;;
1446;SDS011;717;51.522;7.266;2024-03-22T08:52:55;11.35;;;9.23;;
1446;SDS011;717;51.522;7.266;2024-03-22T08:55:21;10.23;;;8.98;;
1446;SDS011;717;51.522;7.266;2024-03-22T08:57:47;10.65;;;7.88;;
1446;SDS011;717;51.522;7.266;2024-03-22T09:00:17;9.48;;;7.95;;
1446;SDS011;717;51.522;7.266;2024-03-22T09:02:43;11.23;;;8.73;;
1446;SDS011;717;51.522;7.266;2024-03-22T09:05:10;9.68;;;8.43;;
1446;SDS011;717;51.522;7.266;2024-03-22T09:07:36;9.85;;;8.13;;
1446;SDS011;717;51.522;7.266;2024-03-22T09:10:03;10.02;;;7.75;;
1446;SDS011;717;51.522;7.266;2024-03-22T09:12:30;11.23;;;8.38;;
1446;SDS011;717;51.522;7.266;2024-03-22T09:14:56;11.10;;;8.77;;
1446;SDS011;717;51.522;7.266;2024-03-22T09:17:25;11.55;;;8.68;;
1446;SDS011;717;51.522;7.266;2024-03-22T09:19:51;11.20;;;8.63;;
1446;SDS011;717;51.522;7.266;2024-03-22T09:22:18;11.68;;;9.02;;
1446;SDS011;717;51.522;7.266;2024-03-22T09:24:44;11.15;;;8.85;;
1446;SDS011;717;51.522;7.266;2024-03-22T09:27:10;11.30;;;9.35;;
1446;SDS011;717;51.522;7.266;2024-03-22T09:29:37;12.43;;;9.20;;
1446;SDS011;717;51.522;7.266;2024-03-22T09:32:03;10.93;;;9.40;;
1446;SDS011;717;51.522;7.266;2024-03-22T09:34:33;10.70;;;8.73;;
1446;SDS011;717;51.522;7.266;2024-03-22T09:36:59;11.32;;;8.23;;
1446;SDS011;717;51.522;7.266;2024-03-22T09:39:25;11.20;;;8.90;;
1446;SDS011;717;51.522;7.266;2024-03-22T09:41:52;11.77;;;8.30;;
1446;SDS011;717;51.522;7.266;2024-03-22T09:44:23;11.45;;;8.82;;
1446;SDS011;717;51.522;7.266;2024-03-22T09:46:52;10.40;;;8.65;;
1446;SDS011;717;51.522;7.266;2024-03-22T09:49:19;12.27;;;8.38;;
1446;SDS011;717;51.522;7.266;2024-03-22T09:51:48;11.15;;;8.82;;
1446;SDS011;717;51.522;7.266;2024-03-22T09:54:17;10.73;;;7.93;;
1446;SDS011;717;51.522;7.266;2024-03-22T09:56:43;11.68;;;8.32;;
1446;SDS011;717;51.522;7.266;2024-03-22T09:59:13;12.00;;;8.57;;
1446;SDS011;717;51.522;7.266;2024-03-22T10:01:40;10.15;;;8.35;;
1446;SDS011;717;51.522;7.266;2024-03-22T10:04:08;12.65;;;8.75;;
1446;SDS011;717;51.522;7.266;2024-03-22T10:06:35;10.32;;;8.07;;
1446;SDS011;717;51.522;7.266;2024-03-22T10:09:04;10.60;;;8.35;;
1446;SDS011;717;51.522;7.266;2024-03-22T10:11:30;10.98;;;8.55;;
1446;SDS011;717;51.522;7.266;2024-03-22T10:13:57;10.40;;;8.65;;
1446;SDS011;717;51.522;7.266;2024-03-22T10:16:25;10.23;;;8.13;;
1446;SDS011;717;51.522;7.266;2024-03-22T10:18:52;11.60;;;8.20;;
1446;SDS011;717;51.522;7.266;2024-03-22T10:21:18;10.32;;;8.40;;
1446;SDS011;717;51.522;7.266;2024-03-22T10:23:45;9.68;;;8.68;;
1446;SDS011;717;51.522;7.266;2024-03-22T10:26:15;10.20;;;8.48;;
1446;SDS011;717;51.522;7.266;2024-03-22T10:28:44;10.20;;;8.15;;
1446;SDS011;717;51.522;7.266;2024-03-22T10:31:11;12.73;;;8.55;;
1446;SDS011;717;51.522;7.266;2024-03-22T10:33:38;10.10;;;8.75;;
1446;SDS011;717;51.522;7.266;2024-03-22T10:36:06;10.27;;;7.90;;
1446;SDS011;717;51.522;7.266;2024-03-22T10:38:32;9.82;;;7.78;;
1446;SDS011;717;51.522;7.266;2024-03-22T10:41:01;9.90;;;8.55;;
1446;SDS011;717;51.522;7.266;2024-03-22T10:43:30;9.02;;;7.88;;
1446;SDS011;717;51.522;7.266;2024-03-22T10:45:59;10.63;;;8.15;;
1446;SDS011;717;51.522;7.266;2024-03-22T10:48:27;11.13;;;8.68;;
1446;SDS011;717;51.522;7.266;2024-03-22T10:50:58;12.75;;;8.23;;
1446;SDS011;717;51.522;7.266;2024-03-22T10:53:27;10.25;;;8.05;;
1446;SDS011;717;51.522;7.266;2024-03-22T10:55:57;9.70;;;8.05;;
1446;SDS011;717;51.522;7.266;2024-03-22T10:58:26;10.45;;;9.27;;
1446;SDS011;717;51.522;7.266;2024-03-22T11:00:55;13.07;;;9.05;;
1446;SDS011;717;51.522;7.266;2024-03-22T11:03:23;12.60;;;8.73;;
1446;SDS011;717;51.522;7.266;2024-03-22T11:05:54;11.63;;;9.38;;
1446;SDS011;717;51.522;7.266;2024-03-22T11:08:25;9.18;;;8.10;;
1446;SDS011;717;51.522;7.266;2024-03-22T11:10:52;10.27;;;8.68;;
1446;SDS011;717;51.522;7.266;2024-03-22T11:13:20;9.52;;;8.10;;
1446;SDS011;717;51.522;7.266;2024-03-22T11:15:47;11.15;;;8.90;;
1446;SDS011;717;51.522;7.266;2024-03-22T11:18:16;10.43;;;8.88;;
1446;SDS011;717;51.522;7.266;2024-03-22T11:20:42;10.52;;;7.53;;
1446;SDS011;717;51.522;7.266;2024-03-22T11:23:11;10.10;;;8.10;;
1446;SDS011;717;51.522;7.266;2024-03-22T11:25:38;9.57;;;8.50;;
1446;SDS011;717;51.522;7.266;2024-03-22T11:28:05;8.60;;;7.70;;
1446;SDS011;717;51.522;7.266;2024-03-22T11:30:32;10.68;;;8.00;;
1446;SDS011;717;51.522;7.266;2024-03-22T11:33:00;9.13;;;7.82;;
1446;SDS011;717;51.522;7.266;2024-03-22T11:35:30;10.98;;;8.10;;
1446;SDS011;717;51.522;7.266;2024-03-22T11:37:56;11.70;;;8.80;;
1446;SDS011;717;51.522;7.266;2024-03-22T11:40:22;10.23;;;7.63;;
1446;SDS011;717;51.522;7.266;2024-03-22T11:42:51;8.70;;;7.60;;
1446;SDS011;717;51.522;7.266;2024-03-22T11:45:19;9.23;;;7.50;;
1446;SDS011;717;51.522;7.266;2024-03-22T11:47:48;8.95;;;7.63;;
1446;SDS011;717;51.522;7.266;2024-03-22T11:50:15;10.30;;;8.80;;
1446;SDS011;717;51.522;7.266;2024-03-22T11:52:44;9.43;;;7.70;;
1446;SDS011;717;51.522;7.266;2024-03-22T11:55:11;8.57;;;6.97;;
1446;SDS011;717;51.522;7.266;2024-03-22T11:57:38;9.05;;;7.75;;
1446;SDS011;717;51.522;7.266;2024-03-22T12:00:06;8.68;;;7.57;;
1446;SDS011;717;51.522;7.266;2024-03-22T12:02:40;8.75;;;7.85;;
1446;SDS011;717;51.522;7.266;2024-03-22T12:05:07;9.73;;;7.75;;
1446;SDS011;717;51.522;7.266;2024-03-22T12:07:35;10.10;;;7.03;;
1446;SDS011;717;51.522;7.266;2024-03-22T12:10:04;9.00;;;7.70;;
1446;SDS011;717;51.522;7.266;2024-03-22T12:12:31;9.20;;;7.95;;
1446;SDS011;717;51.522;7.266;2024-03-22T12:14:57;10.35;;;8.30;;
1446;SDS011;717;51.522;7.266;2024-03-22T12:17:24;9.15;;;8.25;;
1446;SDS011;717;51.522;7.266;2024-03-22T12:19:50;9.30;;;8.15;;
1446;SDS011;717;51.522;7.266;2024-03-22T12:22:17;9.23;;;7.15;;
1446;SDS011;717;51.522;7.266;2024-03-22T12:24:43;9.52;;;8.43;;
1446;SDS011;717;51.522;7.266;2024-03-22T12:27:12;9.45;;;8.55;;
1446;SDS011;717;51.522;7.266;2024-03-22T12:29:38;9.85;;;7.72;;
1446;SDS011;717;51.522;7.266;2024-03-22T12:32:04;9.52;;;7.97;;
1446;SDS011;717;51.522;7.266;2024-03-22T12:34:31;11.57;;;8.50;;
1446;SDS011;717;51.522;7.266;2024-03-22T12:36:58;10.00;;;8.07;;
1446;SDS011;717;51.522;7.266;2024-03-22T12:39:24;9.95;;;8.02;;
1446;SDS011;717;51.522;7.266;2024-03-22T12:41:51;9.93;;;7.85;;
1446;SDS011;717;51.522;7.266;2024-03-22T12:44:20;9.23;;;8.02;;
1446;SDS011;717;51.522;7.266;2024-03-22T12:46:47;10.70;;;8.02;;
1446;SDS011;717;51.522;7.266;2024-03-22T12:49:13;9.70;;;8.70;;
1446;SDS011;717;51.522;7.266;2024-03-22T12:51:39;9.60;;;7.78;;
1446;SDS011;717;51.522;7.266;2024-03-22T12:54:06;10.18;;;8.35;;
1446;SDS011;717;51.522;7.266;2024-03-22T12:56:34;11.50;;;8.20;;
1446;SDS011;717;51.522;7.266;2024-03-22T12:59:00;9.27;;;8.38;;
1446;SDS011;717;51.522;7.266;2024-03-22T13:01:29;9.75;;;8.63;;
1446;SDS011;717;51.522;7.266;2024-03-22T13:03:55;9.68;;;8.65;;
1446;SDS011;717;51.522;7.266;2024-03-22T13:06:22;9.77;;;8.68;;
1446;SDS011;717;51.522;7.266;2024-03-22T13:08:49;10.50;;;9.43;;
1446;SDS011;717;51.522;7.266;2024-03-22T13:11:16;10.40;;;9.25;;
1446;SDS011;717;51.522;7.266;2024-03-22T13:13:42;10.63;;;9.07;;
1446;SDS011;717;51.522;7.266;2024-03-22T13:16:09;11.43;;;9.73;;
1446;SDS011;717;51.522;7.266;2024-03-22T13:18:38;10.77;;;9.30;;
1446;SDS011;717;51.522;7.266;2024-03-22T13:21:05;10.70;;;9.60;;
1446;SDS011;717;51.522;7.266;2024-03-22T13:23:31;10.70;;;9.60;;
1446;SDS011;717;51.522;7.266;2024-03-22T13:26:02;11.02;;;9.73;;
1446;SDS011;717;51.522;7.266;2024-03-22T13:28:28;10.75;;;9.75;;
1446;SDS011;717;51.522;7.266;2024-03-22T13:30:59;11.40;;;10.30;;
1446;SDS011;717;51.522;7.266;2024-03-22T13:33:25;11.68;;;10.43;;
1446;SDS011;717;51.522;7.266;2024-03-22T13:35:54;12.18;;;11.02;;
1446;SDS011;717;51.522;7.266;2024-03-22T13:38:21;12.38;;;10.48;;
1446;SDS011;717;51.522;7.266;2024-03-22T13:40:52;11.40;;;10.20;;
1446;SDS011;717;51.522;7.266;2024-03-22T13:43:19;13.15;;;11.85;;
1446;SDS011;717;51.522;7.266;2024-03-22T13:45:45;12.95;;;11.23;;
1446;SDS011;717;51.522;7.266;2024-03-22T13:48:14;15.45;;;13.90;;
1446;SDS011;717;51.522;7.266;2024-03-22T13:50:40;15.18;;;13.68;;
1446;SDS011;717;51.522;7.266;2024-03-22T13:53:11;15.77;;;14.27;;
1446;SDS011;717;51.522;7.266;2024-03-22T13:55:37;16.42;;;14.55;;
1446;SDS011;717;51.522;7.266;2024-03-22T13:58:03;15.50;;;13.90;;
1446;SDS011;717;51.522;7.266;2024-03-22T14:00:30;14.27;;;12.77;;
1446;SDS011;717;51.522;7.266;2024-03-22T14:02:56;13.25;;;11.82;;
1446;SDS011;717;51.522;7.266;2024-03-22T14:05:22;12.65;;;11.35;;
1446;SDS011;717;51.522;7.266;2024-03-22T14:07:49;12.05;;;10.77;;
1446;SDS011;717;51.522;7.266;2024-03-22T14:10:18;13.05;;;11.82;;
1446;SDS011;717;51.522;7.266;2024-03-22T14:12:45;12.23;;;11.02;;
1446;SDS011;717;51.522;7.266;2024-03-22T14:15:11;12.85;;;11.55;;
1446;SDS011;717;51.522;7.266;2024-03-22T14:17:38;12.82;;;11.52;;
1446;SDS011;717;51.522;7.266;2024-03-22T14:20:05;13.38;;;12.07;;
1446;SDS011;717;51.522;7.266;2024-03-22T14:22:32;12.98;;;11.88;;
1446;SDS011;717;51.522;7.266;2024-03-22T14:24:59;14.35;;;12.10;;
1446;SDS011;717;51.522;7.266;2024-03-22T14:27:28;13.70;;;12.13;;
1446;SDS011;717;51.522;7.266;2024-03-22T14:29:54;12.63;;;11.40;;
1446;SDS011;717;51.522;7.266;2024-03-22T14:32:20;12.45;;;11.25;;
1446;SDS011;717;51.522;7.266;2024-03-22T14:34:47;12.32;;;10.98;;
1446;SDS011;717;51.522;7.266;2024-03-22T14:37:13;13.05;;;11.77;;
1446;SDS011;717;51.522;7.266;2024-03-22T14:39:39;13.43;;;12.13;;
1446;SDS011;717;51.522;7.266;2024-03-22T14:42:07;13.75;;;12.35;;
1446;SDS011;717;51.522;7.266;2024-03-22T14:44:36;12.82;;;11.48;;
1446;SDS011;717;51.522;7.266;2024-03-22T14:47:02;13.60;;;12.23;;
1446;SDS011;717;51.522;7.266;2024-03-22T14:49:29;13.65;;;12.35;;
1446;SDS011;717;51.522;7.266;2024-03-22T14:51:55;13.75;;;12.45;;
1446;SDS011;717;51.522;7.266;2024-03-22T14:54:21;17.75;;;15.95;;
1446;SDS011;717;51.522;7.266;2024-03-22T14:56:47;18.85;;;16.50;;
1446;SDS011;717;51.522;7.266;2024-03-22T14:59:14;19.58;;;17.77;;
1446;SDS011;717;51.522;7.266;2024-03-22T15:01:43;21.83;;;19.63;;
1446;SDS011;717;51.522;7.266;2024-03-22T15:04:09;21.40;;;19.40;;
1446;SDS011;717;51.522;7.266;2024-03-22T15:06:35;23.17;;;20.58;;